Time;durP1;ratioP1;P1;durP2;ratioP2;P2;SDS_P1;SDS_P2;PMS_P1;PMS_P2;Temp;Humidity;BMP_temperature;BMP_pressure;BME280_temperature;BME280_humidity;BME280_pressure;Samples;Min_cycle;Max_cycle;Signal;HPM_P1;HPM_P2
2022/08/09 00:00:59;;;;;;;;;;;;;;;;;;5025610;28;19921;-74
2022/08/09 00:03:25;;;;;;;;;;;;;;;;;;5025313;28;20332;-73
2022/08/09 00:05:50;;;;;;;;;;;;;;;;;;5025675;28;19917;-74
2022/08/09 00:08:16;;;;;;;;;;;;;;;;;;5026249;28;19927;-73
2022/08/09 00:10:41;;;;;;;;;;;;;;;;;;5026558;28;19991;-74
2022/08/09 00:13:07;;;;;;;;;;;;;;;;;;5026311;28;19913;-73
2022/08/09 00:15:32;;;;;;;;;;;;;;;;;;5025734;28;19921;-73
2022/08/09 00:17:58;;;;;;;;;;;;;;;;;;5025373;28;20044;-73
2022/08/09 00:20:23;;;;;;;;;;;;;;;;;;5024378;28;19924;-73
2022/08/09 00:22:49;;;;;;;;;;;;;;;;;;5026310;28;19944;-73
2022/08/09 00:25:15;;;;;;;;;;;;;;;;;;5022792;28;19975;-74
2022/08/09 00:27:40;;;;;;;;;;;;;;;;;;5023559;28;20400;-73
2022/08/09 00:30:06;;;;;;;;;;;;;;;;;;5023304;28;19913;-73
2022/08/09 00:32:31;;;;;;;;;;;;;;;;;;5027717;28;20296;-74
2022/08/09 00:34:57;;;;;;;;;;;;;;;;;;5022780;28;19920;-74
2022/08/09 00:37:22;;;;;;;;;;;;;;;;;;5026286;28;19919;-74
2022/08/09 00:39:48;;;;;;;;;;;;;;;;;;5025684;28;19920;-73
2022/08/09 00:42:13;;;;;;;;;;;;;;;;;;5025300;28;20003;-73
2022/08/09 00:44:39;;;;;;;;;;;;;;;;;;5027862;28;20388;-73
2022/08/09 00:47:05;;;;;;;;;;;;;;;;;;5024343;28;19931;-73
2022/08/09 00:49:31;;;;;;;;;;;;;;;;;;5028847;28;19917;-73
2022/08/09 00:51:57;;;;;;;;;;;;;;;;;;5026844;28;20304;-73
2022/08/09 00:54:23;;;;;;;;;;;;;;;;;;5026943;28;19920;-73
2022/08/09 00:56:49;;;;;;;;;;;;;;;;;;5025763;28;19913;-74
2022/08/09 00:59:14;;;;;;;;;;;;;;;;;;5023445;28;20178;-73
2022/08/09 01:01:40;;;;;;;;;;;;;;;;;;5024188;28;19958;-73
2022/08/09 01:04:06;;;;;;;;;;;;;;;;;;5026891;28;19979;-73
2022/08/09 01:06:38;;;;;;;;;;;;;;;;;;5022016;28;20405;-73
2022/08/09 01:09:25;;;;;;;;;;;;;;;;;;5024470;28;19928;-73
2022/08/09 01:11:54;;;;;;;;;;;;;;;;;;5023818;28;19913;-73
2022/08/09 01:14:31;;;;;;;;;;;;;;;;;;5027017;28;19960;-74
2022/08/09 01:16:59;;;;;;;;;;;;;;;;;;5022907;28;19913;-74
2022/08/09 01:19:45;;;;;;;;;;;;;;;;;;5024875;28;20015;-74
2022/08/09 01:22:11;;;;;;;;;;;;;;;;;;5025127;28;19913;-73
2022/08/09 01:24:40;;;;;;;;;;;;;;;;;;5024513;28;19913;-73
2022/08/09 01:27:06;;;;;;;;;;;;;;;;;;5026866;28;19917;-73
2022/08/09 01:29:33;;;;;;;;;;;;;;;;;;5023824;28;19958;-74
2022/08/09 01:32:01;;;;;;;;;;;;;;;;;;5027336;28;19928;-73
2022/08/09 01:34:28;;;;;;;;;;;;;;;;;;5026361;28;19917;-74
2022/08/09 01:36:55;;;;;;;;;;;;;;;;;;5029726;28;20051;-73
2022/08/09 01:39:21;;;;;;;;;;;;;;;;;;5028875;28;20443;-73
2022/08/09 01:41:47;;;;;;;;;;;;;;;;;;5027348;28;20056;-73
2022/08/09 01:44:13;;;;;;;;;;;;;;;;;;5026098;28;20016;-73
2022/08/09 01:46:40;;;;;;;;;;;;;;;;;;5027379;28;19917;-73
2022/08/09 01:49:08;;;;;;;;;;;;;;;;;;5027755;28;19913;-74
2022/08/09 01:51:34;;;;;;;;;;;;;;;;;;5027796;28;20299;-74
2022/08/09 01:54:01;;;;;;;;;;;;;;;;;;5026082;28;20000;-73
2022/08/09 01:56:27;;;;;;;;;;;;;;;;;;5028881;28;19912;-73
2022/08/09 01:58:55;;;;;;;;;;;;;;;;;;5028174;28;19913;-73
2022/08/09 02:01:21;;;;;;;;;;;;;;;;;;5028451;28;20466;-73
2022/08/09 02:03:48;;;;;;;;;;;;;;;;;;5032703;28;19938;-73
2022/08/09 02:06:13;;;;;;;;;;;;;;;;;;5025586;28;19917;-73
2022/08/09 02:08:41;;;;;;;;;;;;;;;;;;5032123;28;19975;-74
2022/08/09 02:11:07;;;;;;;;;;;;;;;;;;5029321;28;19913;-73
2022/08/09 02:13:34;;;;;;;;;;;;;;;;;;5024532;28;19934;-73
2022/08/09 02:16:01;;;;;;;;;;;;;;;;;;5026689;28;19921;-73
2022/08/09 02:18:29;;;;;;;;;;;;;;;;;;5032038;28;19912;-73
2022/08/09 02:20:57;;;;;;;;;;;;;;;;;;5018291;28;19917;-73
2022/08/09 02:23:29;;;;;;;;;;;;;;;;;;5026082;28;19913;-73
2022/08/09 02:25:56;;;;;;;;;;;;;;;;;;5029109;28;20387;-73
2022/08/09 02:28:26;;;;;;;;;;;;;;;;;;5028230;28;19916;-73
2022/08/09 02:31:00;;;;;;;;;;;;;;;;;;5033563;28;19913;-73
2022/08/09 02:33:27;;;;;;;;;;;;;;;;;;5026503;28;19921;-73
2022/08/09 02:35:54;;;;;;;;;;;;;;;;;;5028467;28;20420;-73
2022/08/09 02:38:25;;;;;;;;;;;;;;;;;;5026376;28;19913;-74
2022/08/09 02:40:51;;;;;;;;;;;;;;;;;;5029482;28;20634;-74
2022/08/09 02:43:18;;;;;;;;;;;;;;;;;;5024758;28;20070;-74
2022/08/09 02:45:44;;;;;;;;;;;;;;;;;;5029825;28;20583;-73
2022/08/09 02:48:12;;;;;;;;;;;;;;;;;;5025154;28;19921;-73
2022/08/09 02:50:42;;;;;;;;;;;;;;;;;;5028478;28;20483;-73
2022/08/09 02:53:13;;;;;;;;;;;;;;;;;;5027981;28;20015;-73
2022/08/09 02:55:39;;;;;;;;;;;;;;;;;;5024759;28;20341;-73
2022/08/09 02:58:06;;;;;;;;;;;;;;;;;;5027613;28;19921;-73
2022/08/09 03:00:31;;;;;;;;;;;;;;;;;;5028051;28;19913;-73
2022/08/09 03:02:59;;;;;;;;;;;;;;;;;;5026043;28;19975;-73
2022/08/09 03:05:25;;;;;;;;;;;;;;;;;;5026324;28;19916;-73
2022/08/09 03:07:51;;;;;;;;;;;;;;;;;;5025521;28;19921;-73
2022/08/09 03:10:17;;;;;;;;;;;;;;;;;;5026943;28;19944;-73
2022/08/09 03:12:43;;;;;;;;;;;;;;;;;;5028093;28;19968;-73
2022/08/09 03:15:10;;;;;;;;;;;;;;;;;;5027912;28;20015;-73
2022/08/09 03:17:36;;;;;;;;;;;;;;;;;;5031622;28;20345;-73
2022/08/09 03:20:03;;;;;;;;;;;;;;;;;;5025288;28;19948;-73
2022/08/09 03:22:29;;;;;;;;;;;;;;;;;;5025382;28;20368;-73
2022/08/09 03:24:55;;;;;;;;;;;;;;;;;;5026103;28;20652;-73
2022/08/09 03:27:21;;;;;;;;;;;;;;;;;;5025943;28;20440;-73
2022/08/09 03:29:47;;;;;;;;;;;;;;;;;;5027015;28;21495;-73
2022/08/09 03:32:13;;;;;;;;;;;;;;;;;;5030487;28;19921;-74
2022/08/09 03:34:38;;;;;;;;;;;;;;;;;;5028534;28;19974;-73
2022/08/09 03:37:04;;;;;;;;;;;;;;;;;;5024447;28;20418;-73
2022/08/09 03:39:29;;;;;;;;;;;;;;;;;;5026158;28;20458;-73
2022/08/09 03:41:55;;;;;;;;;;;;;;;;;;5026885;28;19917;-73
2022/08/09 03:44:21;;;;;;;;;;;;;;;;;;5025274;28;19980;-73
2022/08/09 03:46:47;;;;;;;;;;;;;;;;;;5023996;28;19921;-73
2022/08/09 03:49:13;;;;;;;;;;;;;;;;;;5028919;28;19920;-73
2022/08/09 03:51:40;;;;;;;;;;;;;;;;;;5027909;28;19913;-73
2022/08/09 03:54:06;;;;;;;;;;;;;;;;;;5024591;28;19924;-74
2022/08/09 03:56:32;;;;;;;;;;;;;;;;;;5024506;28;19952;-73
2022/08/09 03:58:57;;;;;;;;;;;;;;;;;;5026145;28;19916;-73
2022/08/09 04:01:23;;;;;;;;;;;;;;;;;;5023225;28;19913;-73
2022/08/09 04:03:49;;;;;;;;;;;;;;;;;;5024741;28;19998;-73
2022/08/09 04:06:15;;;;;;;;;;;;;;;;;;5027214;28;19924;-73
2022/08/09 04:08:40;;;;;;;;;;;;;;;;;;5029076;28;19913;-73
2022/08/09 04:11:06;;;;;;;;;;;;;;;;;;5028417;28;19975;-73
2022/08/09 04:13:32;;;;;;;;;;;;;;;;;;5028469;28;19950;-73
2022/08/09 04:15:57;;;;;;;;;;;;;;;;;;5026413;28;19913;-73
2022/08/09 04:18:23;;;;;;;;;;;;;;;;;;5024136;28;20388;-73
2022/08/09 04:20:49;;;;;;;;;;;;;;;;;;5023791;28;19963;-73
2022/08/09 04:23:14;;;;;;;;;;;;;;;;;;5027271;28;19935;-73
2022/08/09 04:25:40;;;;;;;;;;;;;;;;;;5029476;28;20424;-72
2022/08/09 04:28:05;;;;;;;;;;;;;;;;;;5024872;28;19917;-73
2022/08/09 04:30:31;;;;;;;;;;;;;;;;;;5020667;28;19913;-72
2022/08/09 04:32:58;;;;;;;;;;;;;;;;;;5021799;28;20393;-73
2022/08/09 04:35:24;;;;;;;;;;;;;;;;;;5028548;28;20020;-73
2022/08/09 04:37:49;;;;;;;;;;;;;;;;;;5020594;28;20033;-74
2022/08/09 04:40:15;;;;;;;;;;;;;;;;;;5027691;28;20363;-74
2022/08/09 04:42:40;;;;;;;;;;;;;;;;;;5023315;28;19923;-74
2022/08/09 04:45:06;;;;;;;;;;;;;;;;;;5024338;28;19913;-74
2022/08/09 04:47:32;;;;;;;;;;;;;;;;;;5025627;28;19920;-74
2022/08/09 04:49:57;;;;;;;;;;;;;;;;;;5026352;28;19916;-74
2022/08/09 04:52:24;;;;;;;;;;;;;;;;;;5021548;28;19912;-74
2022/08/09 04:54:52;;;;;;;;;;;;;;;;;;5027499;28;20043;-74
2022/08/09 04:57:19;;;;;;;;;;;;;;;;;;5025043;28;20431;-74
2022/08/09 04:59:44;;;;;;;;;;;;;;;;;;5028832;28;20351;-74
2022/08/09 05:02:10;;;;;;;;;;;;;;;;;;5020591;28;20360;-74
2022/08/09 05:04:35;;;;;;;;;;;;;;;;;;5026776;28;19962;-74
2022/08/09 05:07:01;;;;;;;;;;;;;;;;;;5023681;28;19925;-74
2022/08/09 05:09:29;;;;;;;;;;;;;;;;;;5023582;28;19956;-74
2022/08/09 05:11:54;;;;;;;;;;;;;;;;;;5027053;28;19992;-74
2022/08/09 05:14:20;;;;;;;;;;;;;;;;;;5030365;28;20467;-74
2022/08/09 05:16:46;;;;;;;;;;;;;;;;;;5025312;28;19925;-74
2022/08/09 05:19:13;;;;;;;;;;;;;;;;;;5023155;28;19913;-74
2022/08/09 05:21:39;;;;;;;;;;;;;;;;;;5041199;28;20510;-74
2022/08/09 05:24:05;;;;;;;;;;;;;;;;;;5026391;28;19913;-74
2022/08/09 05:26:31;;;;;;;;;;;;;;;;;;5024272;28;20304;-75
2022/08/09 05:28:57;;;;;;;;;;;;;;;;;;5021239;28;19917;-74
2022/08/09 05:31:22;;;;;;;;;;;;;;;;;;5023779;28;19912;-74
2022/08/09 05:33:48;;;;;;;;;;;;;;;;;;5027995;28;20058;-73
2022/08/09 05:36:14;;;;;;;;;;;;;;;;;;5022424;28;19917;-74
2022/08/09 05:38:39;;;;;;;;;;;;;;;;;;5022364;28;19913;-75
2022/08/09 05:41:05;;;;;;;;;;;;;;;;;;5027292;28;19983;-74
2022/08/09 05:43:34;;;;;;;;;;;;;;;;;;5024942;28;19914;-76
2022/08/09 05:46:00;;;;;;;;;;;;;;;;;;5022719;28;19925;-74
2022/08/09 05:48:25;;;;;;;;;;;;;;;;;;5023975;28;19924;-74
2022/08/09 05:50:51;;;;;;;;;;;;;;;;;;5026527;28;19914;-75
2022/08/09 05:53:16;;;;;;;;;;;;;;;;;;5023402;28;19913;-75
2022/08/09 05:55:42;;;;;;;;;;;;;;;;;;5021583;28;19917;-74
2022/08/09 05:58:07;;;;;;;;;;;;;;;;;;5027147;28;19952;-74
2022/08/09 06:00:33;;;;;;;;;;;;;;;;;;5026875;28;19912;-75
2022/08/09 06:03:00;;;;;;;;;;;;;;;;;;5022827;28;19921;-75
2022/08/09 06:05:27;;;;;;;;;;;;;;;;;;5025234;28;20626;-75
2022/08/09 06:07:52;;;;;;;;;;;;;;;;;;5028873;28;19944;-74
2022/08/09 06:10:18;;;;;;;;;;;;;;;;;;5025177;28;20361;-74
2022/08/09 06:12:43;;;;;;;;;;;;;;;;;;5025586;28;19917;-74
2022/08/09 06:15:09;;;;;;;;;;;;;;;;;;5021995;28;19967;-73
2022/08/09 06:17:35;;;;;;;;;;;;;;;;;;5025611;28;19932;-74
2022/08/09 06:20:00;;;;;;;;;;;;;;;;;;5024182;28;19913;-74
2022/08/09 06:22:26;;;;;;;;;;;;;;;;;;5029631;28;19917;-73
2022/08/09 06:24:51;;;;;;;;;;;;;;;;;;5010105;28;19913;-73
2022/08/09 06:27:17;;;;;;;;;;;;;;;;;;5029786;28;20003;-73
2022/08/09 06:29:43;;;;;;;;;;;;;;;;;;5029438;28;19944;-73
2022/08/09 06:32:08;;;;;;;;;;;;;;;;;;5028561;28;19923;-74
2022/08/09 06:34:34;;;;;;;;;;;;;;;;;;5030315;28;19943;-74
2022/08/09 06:37:00;;;;;;;;;;;;;;;;;;5027755;28;19913;-74
2022/08/09 06:39:31;;;;;;;;;;;;;;;;;;5028724;28;19917;-74
2022/08/09 06:41:56;;;;;;;;;;;;;;;;;;5026811;28;19917;-74
2022/08/09 06:44:24;;;;;;;;;;;;;;;;;;5028275;28;20269;-74
2022/08/09 06:46:50;;;;;;;;;;;;;;;;;;5025196;28;19923;-74
2022/08/09 06:49:16;;;;;;;;;;;;;;;;;;5029177;28;19917;-74
2022/08/09 06:51:41;;;;;;;;;;;;;;;;;;5025567;28;19913;-74
2022/08/09 06:54:07;;;;;;;;;;;;;;;;;;5025676;28;20035;-74
2022/08/09 06:56:32;;;;;;;;;;;;;;;;;;5027790;28;19971;-74
2022/08/09 06:58:58;;;;;;;;;;;;;;;;;;5030291;28;19914;-74
2022/08/09 07:01:24;;;;;;;;;;;;;;;;;;5022119;28;19924;-73
2022/08/09 07:03:49;;;;;;;;;;;;;;;;;;5027336;28;19923;-74
2022/08/09 07:06:15;;;;;;;;;;;;;;;;;;5026599;28;19917;-74
2022/08/09 07:08:40;;;;;;;;;;;;;;;;;;5026604;28;19919;-74
2022/08/09 07:11:06;;;;;;;;;;;;;;;;;;5028603;28;20383;-74
2022/08/09 07:13:31;;;;;;;;;;;;;;;;;;5028340;28;19913;-74
2022/08/09 07:15:57;;;;;;;;;;;;;;;;;;5024872;28;19912;-74
2022/08/09 07:18:22;;;;;;;;;;;;;;;;;;5026567;28;20011;-73
2022/08/09 07:20:49;;;;;;;;;;;;;;;;;;5024936;28;19966;-73
2022/08/09 07:23:16;;;;;;;;;;;;;;;;;;5041877;28;19944;-73
2022/08/09 07:25:41;;;;;;;;;;;;;;;;;;5027002;28;19917;-74
2022/08/09 07:28:08;;;;;;;;;;;;;;;;;;5025147;28;19917;-74
2022/08/09 07:30:33;;;;;;;;;;;;;;;;;;5026997;28;20424;-74
2022/08/09 07:32:59;;;;;;;;;;;;;;;;;;5022632;28;19921;-75
2022/08/09 07:35:25;;;;;;;;;;;;;;;;;;5030247;28;19913;-75
2022/08/09 07:37:51;;;;;;;;;;;;;;;;;;5025694;28;19913;-74
2022/08/09 07:40:17;;;;;;;;;;;;;;;;;;5027151;28;20473;-74
2022/08/09 07:42:48;;;;;;;;;;;;;;;;;;5028132;28;20373;-74
2022/08/09 07:45:14;;;;;;;;;;;;;;;;;;5029092;28;19913;-76
2022/08/09 07:47:39;;;;;;;;;;;;;;;;;;5029674;28;19979;-76
2022/08/09 07:50:05;;;;;;;;;;;;;;;;;;5028651;28;20003;-75
2022/08/09 07:52:31;;;;;;;;;;;;;;;;;;5025720;28;19921;-76
2022/08/09 07:54:56;;;;;;;;;;;;;;;;;;5026393;28;19921;-76
2022/08/09 07:57:21;;;;;;;;;;;;;;;;;;5024405;28;20428;-76
2022/08/09 07:59:47;;;;;;;;;;;;;;;;;;5024447;28;19957;-76
2022/08/09 08:02:12;;;;;;;;;;;;;;;;;;5026363;28;19944;-76
2022/08/09 08:04:40;;;;;;;;;;;;;;;;;;5025604;28;19967;-76
2022/08/09 08:07:06;;;;;;;;;;;;;;;;;;5027090;28;20420;-76
2022/08/09 08:09:31;;;;;;;;;;;;;;;;;;5028462;28;20015;-76
2022/08/09 08:11:56;;;;;;;;;;;;;;;;;;5029692;28;19919;-76
2022/08/09 08:14:22;;;;;;;;;;;;;;;;;;5026029;28;20069;-76
2022/08/09 08:16:47;;;;;;;;;;;;;;;;;;5025679;28;19913;-76
2022/08/09 08:19:13;;;;;;;;;;;;;;;;;;5024979;28;20150;-75
2022/08/09 08:21:39;;;;;;;;;;;;;;;;;;5029025;28;19913;-75
2022/08/09 08:24:04;;;;;;;;;;;;;;;;;;5024915;28;20007;-75
2022/08/09 08:26:32;;;;;;;;;;;;;;;;;;5028412;28;19917;-75
2022/08/09 08:28:57;;;;;;;;;;;;;;;;;;5026214;28;19924;-75
2022/08/09 08:31:23;;;;;;;;;;;;;;;;;;5027488;28;19917;-76
2022/08/09 08:33:48;;;;;;;;;;;;;;;;;;5024248;28;20412;-76
2022/08/09 08:36:14;;;;;;;;;;;;;;;;;;5025998;28;19913;-75
2022/08/09 08:38:39;;;;;;;;;;;;;;;;;;5027937;28;19976;-76
2022/08/09 08:41:05;;;;;;;;;;;;;;;;;;5025953;28;19920;-75
2022/08/09 08:43:30;;;;;;;;;;;;;;;;;;5021431;28;19913;-75
2022/08/09 08:46:00;;;;;;;;;;;;;;;;;;5026096;28;19936;-75
2022/08/09 08:48:26;;;;;;;;;;;;;;;;;;5023008;28;19917;-75
2022/08/09 08:50:51;;;;;;;;;;;;;;;;;;5022729;28;19919;-75
2022/08/09 08:53:17;;;;;;;;;;;;;;;;;;5029125;28;20215;-75
2022/08/09 08:55:43;;;;;;;;;;;;;;;;;;5026392;28;19913;-75
2022/08/09 08:58:09;;;;;;;;;;;;;;;;;;5025096;28;20573;-75
2022/08/09 09:00:34;;;;;;;;;;;;;;;;;;5025012;28;19917;-75
2022/08/09 09:03:01;;;;;;;;;;;;;;;;;;5023332;28;19917;-75
2022/08/09 09:05:27;;;;;;;;;;;;;;;;;;5024752;28;19917;-75
2022/08/09 09:07:53;;;;;;;;;;;;;;;;;;5026086;28;20397;-75
2022/08/09 09:10:19;;;;;;;;;;;;;;;;;;5023850;28;20018;-75
2022/08/09 09:12:45;;;;;;;;;;;;;;;;;;5028366;28;19990;-75
2022/08/09 09:15:11;;;;;;;;;;;;;;;;;;5025435;28;20012;-75
2022/08/09 09:17:37;;;;;;;;;;;;;;;;;;5024939;28;20003;-75
2022/08/09 09:20:06;;;;;;;;;;;;;;;;;;5023631;28;19923;-75
2022/08/09 09:22:48;;;;;;;;;;;;;;;;;;5027773;28;19917;-75
2022/08/09 09:25:28;;;;;;;;;;;;;;;;;;5020133;28;20415;-75
2022/08/09 09:27:57;;;;;;;;;;;;;;;;;;5026804;28;19912;-74
2022/08/09 09:30:22;;;;;;;;;;;;;;;;;;5026547;28;19912;-75
2022/08/09 09:33:00;;;;;;;;;;;;;;;;;;5028587;28;19966;-75
2022/08/09 09:35:26;;;;;;;;;;;;;;;;;;5024201;28;19996;-76
2022/08/09 09:37:54;;;;;;;;;;;;;;;;;;5025590;28;20020;-75
2022/08/09 09:40:20;;;;;;;;;;;;;;;;;;5027494;28;20005;-75
2022/08/09 09:42:55;;;;;;;;;;;;;;;;;;5022524;28;19997;-75
2022/08/09 09:45:22;;;;;;;;;;;;;;;;;;5028637;28;20442;-75
2022/08/09 09:47:48;;;;;;;;;;;;;;;;;;5027152;28;19920;-75
2022/08/09 09:50:13;;;;;;;;;;;;;;;;;;5023729;28;19912;-75
2022/08/09 09:52:52;;;;;;;;;;;;;;;;;;5026699;28;19939;-77
2022/08/09 09:55:17;;;;;;;;;;;;;;;;;;5036464;28;19917;-77
2022/08/09 09:57:56;;;;;;;;;;;;;;;;;;5033767;28;19919;-78
2022/08/09 10:00:22;;;;;;;;;;;;;;;;;;5053339;28;19913;-77
2022/08/09 10:02:48;;;;;;;;;;;;;;;;;;5037961;28;19912;-77
2022/08/09 10:05:13;;;;;;;;;;;;;;;;;;5036685;28;19948;-78
2022/08/09 10:07:39;;;;;;;;;;;;;;;;;;5036250;28;20285;-77
2022/08/09 10:10:05;;;;;;;;;;;;;;;;;;5021321;28;19956;-78
2022/08/09 10:12:34;;;;;;;;;;;;;;;;;;5039128;28;19913;-77
2022/08/09 10:15:14;;;;;;;;;;;;;;;;;;5037521;28;20045;-77
2022/08/09 10:17:40;;;;;;;;;;;;;;;;;;5035537;28;19917;-78
2022/08/09 10:20:22;;;;;;;;;;;;;;;;;;5034217;28;20418;-77
2022/08/09 10:22:48;;;;;;;;;;;;;;;;;;5034323;28;19928;-77
2022/08/09 10:25:14;;;;;;;;;;;;;;;;;;5030730;28;19929;-77
2022/08/09 10:27:43;;;;;;;;;;;;;;;;;;5034753;28;19932;-77
2022/08/09 10:30:09;;;;;;;;;;;;;;;;;;5029613;28;19924;-77
2022/08/09 10:32:35;;;;;;;;;;;;;;;;;;5027855;28;19924;-78
2022/08/09 10:35:01;;;;;;;;;;;;;;;;;;5030881;28;19921;-77
2022/08/09 10:37:26;;;;;;;;;;;;;;;;;;5028943;28;19924;-77
2022/08/09 10:39:52;;;;;;;;;;;;;;;;;;5033879;28;20003;-77
2022/08/09 10:42:18;;;;;;;;;;;;;;;;;;5033040;28;20383;-77
2022/08/09 10:44:45;;;;;;;;;;;;;;;;;;5035530;28;19917;-77
2022/08/09 10:47:29;;;;;;;;;;;;;;;;;;5032213;28;19978;-77
2022/08/09 10:50:03;;;;;;;;;;;;;;;;;;5031024;28;19913;-76
2022/08/09 10:52:28;;;;;;;;;;;;;;;;;;5030023;28;19913;-77
2022/08/09 10:54:54;;;;;;;;;;;;;;;;;;5035540;28;19980;-77
2022/08/09 10:57:22;;;;;;;;;;;;;;;;;;5034494;28;20024;-77
2022/08/09 10:59:47;;;;;;;;;;;;;;;;;;5039719;28;19917;-77
2022/08/09 11:02:32;;;;;;;;;;;;;;;;;;5032916;28;19931;-77
2022/08/09 11:05:26;;;;;;;;;;;;;;;;;;5030984;28;20474;-77
2022/08/09 11:07:51;;;;;;;;;;;;;;;;;;5029618;28;19916;-77
2022/08/09 11:10:36;;;;;;;;;;;;;;;;;;5031059;28;19940;-77
2022/08/09 11:13:18;;;;;;;;;;;;;;;;;;5015509;28;19917;-76
2022/08/09 11:15:44;;;;;;;;;;;;;;;;;;5034063;28;20384;-77
2022/08/09 11:18:12;;;;;;;;;;;;;;;;;;5036381;28;19952;-77
2022/08/09 11:20:38;;;;;;;;;;;;;;;;;;5030992;28;19975;-77
2022/08/09 11:23:04;;;;;;;;;;;;;;;;;;5030679;28;20277;-77
2022/08/09 11:25:30;;;;;;;;;;;;;;;;;;5027441;28;20324;-77
2022/08/09 11:27:57;;;;;;;;;;;;;;;;;;5031345;28;19920;-78
2022/08/09 11:30:23;;;;;;;;;;;;;;;;;;5031237;28;19913;-78
2022/08/09 11:32:49;;;;;;;;;;;;;;;;;;5031747;28;19964;-78
2022/08/09 11:35:27;;;;;;;;;;;;;;;;;;5030396;28;19913;-77
2022/08/09 11:37:57;;;;;;;;;;;;;;;;;;5030801;28;19995;-78
2022/08/09 11:40:22;;;;;;;;;;;;;;;;;;5029370;28;19936;-77
2022/08/09 11:42:49;;;;;;;;;;;;;;;;;;5026886;28;19912;-78
2022/08/09 11:45:19;;;;;;;;;;;;;;;;;;5030437;28;19913;-78
2022/08/09 11:47:45;;;;;;;;;;;;;;;;;;5028637;28;20373;-77
2022/08/09 11:50:11;;;;;;;;;;;;;;;;;;5028929;28;20008;-77
2022/08/09 11:52:55;;;;;;;;;;;;;;;;;;5026439;28;20020;-77
2022/08/09 11:55:37;;;;;;;;;;;;;;;;;;5028701;28;20328;-77
2022/08/09 11:58:12;;;;;;;;;;;;;;;;;;5047124;23;19913;-67
2022/08/09 12:00:46;;;;;;;;;;;;;;;;;;5004703;28;19945;-70
2022/08/09 12:03:14;;;;;;;;;;;;;;;;;;5006888;28;19913;-69
2022/08/09 12:05:39;;;;;;;;;;;;;;;;;;5008888;28;19925;-69
2022/08/09 12:08:06;;;;;;;;;;;;;;;;;;5017697;28;19920;-69
2022/08/09 12:10:32;;;;;;;;;;;;;;;;;;5028055;28;20566;-69
2022/08/09 12:12:59;;;;;;;;;;;;;;;;;;5028008;28;19939;-69
2022/08/09 12:15:25;;;;;;;;;;;;;;;;;;5028168;28;20368;-69
2022/08/09 12:17:52;;;;;;;;;;;;;;;;;;5008013;28;19937;-69
2022/08/09 12:20:22;;;;;;;;;;;;;;;;;;5025281;28;19912;-69
2022/08/09 12:22:50;;;;;;;;;;;;;;;;;;5020306;28;19913;-69
2022/08/09 12:25:18;;;;;;;;;;;;;;;;;;5026160;28;20318;-69
2022/08/09 12:27:43;;;;;;;;;;;;;;;;;;5026454;28;19927;-69
2022/08/09 12:30:09;;;;;;;;;;;;;;;;;;5024067;28;19922;-69
2022/08/09 12:32:34;;;;;;;;;;;;;;;;;;5025881;28;20377;-69
2022/08/09 12:35:01;;;;;;;;;;;;;;;;;;5026055;28;19924;-69
2022/08/09 12:37:34;;;;;;;;;;;;;;;;;;5025808;28;19913;-69
2022/08/09 12:40:05;;;;;;;;;;;;;;;;;;5021730;28;19963;-69
2022/08/09 12:42:30;;;;;;;;;;;;;;;;;;5026357;28;19917;-69
2022/08/09 12:44:56;;;;;;;;;;;;;;;;;;5023930;28;19917;-69
2022/08/09 12:47:22;;;;;;;;;;;;;;;;;;5022854;28;19925;-69
2022/08/09 12:50:16;;;;;;;;;;;;;;;;;;5025456;28;20407;-69
2022/08/09 12:52:37;;;;;;;;;;;;;;;;;;5025970;28;19921;-69
2022/08/09 12:55:03;;;;;;;;;;;;;;;;;;5025613;28;19917;-69
2022/08/09 12:57:39;;;;;;;;;;;;;;;;;;5024023;28;20285;-69
2022/08/09 13:00:17;;;;;;;;;;;;;;;;;;5023666;28;19912;-69
2022/08/09 13:02:52;;;;;;;;;;;;;;;;;;5020127;28;19917;-69
2022/08/09 13:05:19;;;;;;;;;;;;;;;;;;5025754;28;20392;-69
2022/08/09 13:08:03;;;;;;;;;;;;;;;;;;5026150;28;20304;-69
2022/08/09 13:10:28;;;;;;;;;;;;;;;;;;5024082;28;19923;-69
2022/08/09 13:12:54;;;;;;;;;;;;;;;;;;5024215;28;20351;-69
2022/08/09 13:15:19;;;;;;;;;;;;;;;;;;5025931;28;19925;-70
2022/08/09 13:17:45;;;;;;;;;;;;;;;;;;5028119;28;20376;-70
2022/08/09 13:20:10;;;;;;;;;;;;;;;;;;5022077;28;19936;-70
2022/08/09 13:22:46;;;;;;;;;;;;;;;;;;5025828;28;20560;-69
2022/08/09 13:25:11;;;;;;;;;;;;;;;;;;5025142;28;19966;-69
2022/08/09 13:27:38;;;;;;;;;;;;;;;;;;5021843;28;19925;-69
2022/08/09 13:30:08;;;;;;;;;;;;;;;;;;5025046;28;19912;-69
2022/08/09 13:32:44;;;;;;;;;;;;;;;;;;5029813;28;19916;-69
2022/08/09 13:35:10;;;;;;;;;;;;;;;;;;5025256;28;19921;-68
2022/08/09 13:37:35;;;;;;;;;;;;;;;;;;5029224;28;19923;-68
2022/08/09 13:40:02;;;;;;;;;;;;;;;;;;5029004;28;19917;-69
2022/08/09 13:42:27;;;;;;;;;;;;;;;;;;5027873;28;19967;-69
2022/08/09 13:44:53;;;;;;;;;;;;;;;;;;5024818;28;19917;-69
2022/08/09 13:47:18;;;;;;;;;;;;;;;;;;5029583;28;20281;-69
2022/08/09 13:49:44;;;;;;;;;;;;;;;;;;5029727;28;20015;-69
2022/08/09 13:52:10;;;;;;;;;;;;;;;;;;5028653;28;20435;-69
2022/08/09 13:54:36;;;;;;;;;;;;;;;;;;5029249;28;19912;-69
2022/08/09 13:57:02;;;;;;;;;;;;;;;;;;5030273;28;19913;-70
2022/08/09 13:59:27;;;;;;;;;;;;;;;;;;5029404;28;19913;-69
2022/08/09 14:01:53;;;;;;;;;;;;;;;;;;5010643;28;19913;-69
2022/08/09 14:04:19;;;;;;;;;;;;;;;;;;5026698;28;19979;-69
2022/08/09 14:06:54;;;;;;;;;;;;;;;;;;5028219;28;20016;-69
2022/08/09 14:09:20;;;;;;;;;;;;;;;;;;5027414;28;19943;-69
2022/08/09 14:11:45;;;;;;;;;;;;;;;;;;5028244;28;20328;-69
2022/08/09 14:14:11;;;;;;;;;;;;;;;;;;5027743;28;19917;-69
2022/08/09 14:16:36;;;;;;;;;;;;;;;;;;5026128;28;19917;-69
2022/08/09 14:19:02;;;;;;;;;;;;;;;;;;5028267;28;20447;-70
2022/08/09 14:21:27;;;;;;;;;;;;;;;;;;5028702;28;19917;-68
2022/08/09 14:23:53;;;;;;;;;;;;;;;;;;5023462;28;19917;-68
2022/08/09 14:26:20;;;;;;;;;;;;;;;;;;5026273;28;19968;-70
2022/08/09 14:28:45;;;;;;;;;;;;;;;;;;5028306;28;19917;-70
2022/08/09 14:31:11;;;;;;;;;;;;;;;;;;5027230;28;19966;-69
2022/08/09 14:33:36;;;;;;;;;;;;;;;;;;5025718;28;20579;-69
2022/08/09 14:36:02;;;;;;;;;;;;;;;;;;5027115;28;19955;-69
2022/08/09 14:38:28;;;;;;;;;;;;;;;;;;5025812;28;19962;-69
2022/08/09 14:40:53;;;;;;;;;;;;;;;;;;5024328;28;19953;-68
2022/08/09 14:43:19;;;;;;;;;;;;;;;;;;5025705;28;20316;-69
2022/08/09 14:45:44;;;;;;;;;;;;;;;;;;5027672;28;19923;-69
2022/08/09 14:48:10;;;;;;;;;;;;;;;;;;5025589;28;20422;-69
2022/08/09 14:50:36;;;;;;;;;;;;;;;;;;5025446;28;19920;-69
2022/08/09 14:53:03;;;;;;;;;;;;;;;;;;5027071;28;19916;-69
2022/08/09 14:55:29;;;;;;;;;;;;;;;;;;5026108;28;19917;-69
2022/08/09 14:57:54;;;;;;;;;;;;;;;;;;5024852;28;20580;-69
2022/08/09 15:00:21;;;;;;;;;;;;;;;;;;5024765;28;20107;-68
2022/08/09 15:02:46;;;;;;;;;;;;;;;;;;5013573;28;19996;-69
2022/08/09 15:05:12;;;;;;;;;;;;;;;;;;5019063;28;19999;-68
2022/08/09 15:07:37;;;;;;;;;;;;;;;;;;5017238;28;19956;-68
2022/08/09 15:10:03;;;;;;;;;;;;;;;;;;5020748;28;20361;-68
2022/08/09 15:12:28;;;;;;;;;;;;;;;;;;5018905;28;20780;-67
2022/08/09 15:14:54;;;;;;;;;;;;;;;;;;5011584;28;20463;-68
2022/08/09 15:17:20;;;;;;;;;;;;;;;;;;5011050;28;20011;-68
2022/08/09 15:19:46;;;;;;;;;;;;;;;;;;5015548;28;20003;-68
2022/08/09 15:22:11;;;;;;;;;;;;;;;;;;5021731;28;19913;-69
2022/08/09 15:24:37;;;;;;;;;;;;;;;;;;5021133;28;19917;-68
2022/08/09 15:27:02;;;;;;;;;;;;;;;;;;5021925;28;19932;-69
2022/08/09 15:29:28;;;;;;;;;;;;;;;;;;5019913;28;19913;-68
2022/08/09 15:31:54;;;;;;;;;;;;;;;;;;5002991;28;19914;-68
2022/08/09 15:34:20;;;;;;;;;;;;;;;;;;4990561;28;19923;-68
2022/08/09 15:36:45;;;;;;;;;;;;;;;;;;5025103;28;19917;-69
2022/08/09 15:39:11;;;;;;;;;;;;;;;;;;5023882;28;19916;-68
2022/08/09 15:41:36;;;;;;;;;;;;;;;;;;5022154;28;19913;-69
2022/08/09 15:44:02;;;;;;;;;;;;;;;;;;5025992;28;19921;-68
2022/08/09 15:46:28;;;;;;;;;;;;;;;;;;5021241;28;20071;-68
2022/08/09 15:48:53;;;;;;;;;;;;;;;;;;5013800;28;19932;-68
2022/08/09 15:51:19;;;;;;;;;;;;;;;;;;5020083;28;20315;-68
2022/08/09 15:53:44;;;;;;;;;;;;;;;;;;5024113;28;19921;-69
2022/08/09 15:56:10;;;;;;;;;;;;;;;;;;5023109;28;19920;-68
2022/08/09 15:58:35;;;;;;;;;;;;;;;;;;5020541;28;19963;-68
2022/08/09 16:01:00;;;;;;;;;;;;;;;;;;5022036;28;19913;-68
2022/08/09 16:03:27;;;;;;;;;;;;;;;;;;5024421;28;19925;-68
2022/08/09 16:05:53;;;;;;;;;;;;;;;;;;5019420;28;19921;-68
2022/08/09 16:08:18;;;;;;;;;;;;;;;;;;5024075;28;20395;-68
2022/08/09 16:10:43;;;;;;;;;;;;;;;;;;5022290;28;20495;-68
2022/08/09 16:13:09;;;;;;;;;;;;;;;;;;5025195;28;19921;-68
2022/08/09 16:15:35;;;;;;;;;;;;;;;;;;5024153;28;19917;-68
2022/08/09 16:18:00;;;;;;;;;;;;;;;;;;5025702;28;19924;-68
2022/08/09 16:20:26;;;;;;;;;;;;;;;;;;5022352;28;19920;-69
2022/08/09 16:22:51;;;;;;;;;;;;;;;;;;5026499;28;19984;-68
2022/08/09 16:25:17;;;;;;;;;;;;;;;;;;5023721;28;19967;-68
2022/08/09 16:27:42;;;;;;;;;;;;;;;;;;5024699;28;19996;-68
2022/08/09 16:30:09;;;;;;;;;;;;;;;;;;5025175;28;19923;-68
2022/08/09 16:35:18;;;;;;;;;;;;;;;;;;5018448;28;19913;-67
2022/08/09 16:37:44;;;;;;;;;;;;;;;;;;5022705;28;19919;-68
2022/08/09 16:40:10;;;;;;;;;;;;;;;;;;5019273;28;19921;-68
2022/08/09 16:42:37;;;;;;;;;;;;;;;;;;5019744;28;19920;-67
2022/08/09 16:45:03;;;;;;;;;;;;;;;;;;5018090;28;19968;-69
2022/08/09 16:47:29;;;;;;;;;;;;;;;;;;5023733;28;19924;-69